createdAt,value
2017-12-25T00:00:21.185Z,87.10
2017-12-25T00:02:49.541Z,87.42
2017-12-25T00:05:17.853Z,87.12
2017-12-25T00:07:46.505Z,87.45
2017-12-25T00:10:14.832Z,87.55
2017-12-25T00:12:43.174Z,87.96
2017-12-25T00:15:11.535Z,88.18
2017-12-25T00:17:40.792Z,88.25
2017-12-25T00:20:09.805Z,88.42
2017-12-25T00:22:38.146Z,88.29
2017-12-25T00:25:06.461Z,88.20
2017-12-25T00:27:34.803Z,88.22
2017-12-25T00:30:03.847Z,88.23
2017-12-25T00:32:32.190Z,88.27
2017-12-25T00:35:00.573Z,88.55
2017-12-25T00:37:29.583Z,88.54
2017-12-25T00:39:58.093Z,88.20
2017-12-25T00:42:26.421Z,88.26
2017-12-25T00:44:55.705Z,87.77
2017-12-25T00:47:24.066Z,87.81
2017-12-25T00:49:52.381Z,87.09
2017-12-25T00:52:20.990Z,86.78
2017-12-25T00:54:49.294Z,86.13
2017-12-25T00:57:17.629Z,86.21
2017-12-25T00:59:45.963Z,86.21
2017-12-25T01:02:14.369Z,85.63
2017-12-25T01:04:43.318Z,85.29
2017-12-25T01:07:11.649Z,85.11
2017-12-25T01:09:39.993Z,84.74
2017-12-25T01:12:08.338Z,84.56
2017-12-25T01:14:36.653Z,83.78
2017-12-25T01:17:05.005Z,83.72
2017-12-25T01:19:33.321Z,83.73
2017-12-25T01:22:01.633Z,83.81
2017-12-25T01:24:30.080Z,83.71
2017-12-25T01:26:58.389Z,83.76
2017-12-25T01:29:26.731Z,84.24
2017-12-25T01:31:55.050Z,83.96
2017-12-25T01:34:23.381Z,84.06
2017-12-25T01:36:51.701Z,84.72
2017-12-25T01:39:20.041Z,84.75
2017-12-25T01:41:48.403Z,84.95
2017-12-25T01:44:16.747Z,85.17
2017-12-25T01:46:57.028Z,85.72
2017-12-25T01:49:25.362Z,85.59
2017-12-25T01:51:53.677Z,85.91
2017-12-25T01:54:21.734Z,86.04
2017-12-25T01:56:49.765Z,85.54
2017-12-25T02:02:18.685Z,85.31
2017-12-25T02:04:47.429Z,85.27
2017-12-25T02:07:27.276Z,85.12
2017-12-25T02:09:55.326Z,84.58
2017-12-25T02:12:23.361Z,84.52
2017-12-25T02:14:51.417Z,84.24
2017-12-25T02:17:19.770Z,83.66
2017-12-25T02:19:48.117Z,83.91
2017-12-25T02:22:16.429Z,83.23
2017-12-25T02:24:44.769Z,83.50
2017-12-25T02:27:13.085Z,83.45
2017-12-25T02:29:41.450Z,83.43
2017-12-25T02:32:09.766Z,83.58
2017-12-25T02:34:38.098Z,83.85
2017-12-25T02:37:06.427Z,83.97
2017-12-25T02:39:34.761Z,84.10
2017-12-25T02:42:03.101Z,84.22
2017-12-25T02:44:31.428Z,84.31
2017-12-25T02:46:59.737Z,84.57
2017-12-25T02:49:28.101Z,84.55
2017-12-25T02:51:56.409Z,84.94
2017-12-25T02:54:24.775Z,84.86
2017-12-25T02:56:53.100Z,85.29
2017-12-25T02:59:21.438Z,84.96
2017-12-25T03:01:49.746Z,85.18
2017-12-25T03:04:18.086Z,85.56
2017-12-25T03:06:46.444Z,85.64
2017-12-25T03:09:14.780Z,85.70
2017-12-25T03:11:43.170Z,85.84
2017-12-25T03:14:11.537Z,85.66
2017-12-25T03:16:39.845Z,86.12
2017-12-25T03:19:08.188Z,86.22
2017-12-25T03:21:36.502Z,86.28
2017-12-25T03:24:04.834Z,86.55
2017-12-25T03:26:33.149Z,86.80
2017-12-25T03:29:01.489Z,86.78
2017-12-25T03:31:29.865Z,87.13
2017-12-25T03:33:58.206Z,87.37
2017-12-25T03:36:26.558Z,87.65
2017-12-25T03:38:54.897Z,88.10
2017-12-25T03:41:23.225Z,88.50
2017-12-25T03:43:51.785Z,88.46
2017-12-25T03:46:20.106Z,89.01
2017-12-25T03:48:48.441Z,89.06
2017-12-25T03:51:16.770Z,89.23
2017-12-25T03:53:45.114Z,89.66
2017-12-25T03:56:13.439Z,89.63
2017-12-25T03:58:41.821Z,89.65
2017-12-25T04:01:10.142Z,89.68
2017-12-25T04:03:38.546Z,89.87
2017-12-25T04:06:06.877Z,89.94
2017-12-25T04:08:35.228Z,89.42
2017-12-25T04:11:03.570Z,88.92
2017-12-25T04:13:31.893Z,88.51
2017-12-25T04:16:00.268Z,89.02
2017-12-25T04:18:28.581Z,88.96
2017-12-25T04:20:56.917Z,88.81
2017-12-25T04:23:25.280Z,89.22
2017-12-25T04:25:53.675Z,89.67
2017-12-25T04:28:22.031Z,90.14
2017-12-25T04:30:50.374Z,90.11
2017-12-25T04:33:18.698Z,90.17
2017-12-25T04:35:47.039Z,89.99
2017-12-25T04:38:15.374Z,90.36
2017-12-25T04:40:43.733Z,90.91
2017-12-25T04:43:12.045Z,91.12
2017-12-25T04:45:40.389Z,91.07
2017-12-25T04:48:08.780Z,91.32
2017-12-25T04:50:37.131Z,91.08
2017-12-25T04:53:05.450Z,90.87
2017-12-25T04:55:33.830Z,90.69
2017-12-25T04:58:02.146Z,90.97
2017-12-25T05:00:30.481Z,91.19
2017-12-25T05:02:58.841Z,91.38
2017-12-25T05:05:27.178Z,91.33
2017-12-25T05:07:55.531Z,90.99
2017-12-25T05:10:23.841Z,90.90
2017-12-25T05:12:52.146Z,90.95
2017-12-25T05:15:20.528Z,91.10
2017-12-25T05:17:48.908Z,91.42
2017-12-25T05:20:17.234Z,91.23
2017-12-25T05:22:45.545Z,91.09
2017-12-25T05:25:13.883Z,91.44
2017-12-25T05:27:42.215Z,91.67
2017-12-25T05:30:10.540Z,91.71
2017-12-25T05:32:38.854Z,91.56
2017-12-25T05:35:07.190Z,91.52
2017-12-25T05:37:35.506Z,91.50
2017-12-25T05:40:03.850Z,91.65
2017-12-25T05:42:32.165Z,91.65
2017-12-25T05:45:00.505Z,91.47
2017-12-25T05:47:28.818Z,91.31
2017-12-25T05:49:57.154Z,91.85
2017-12-25T05:52:25.466Z,91.24
2017-12-25T05:54:53.807Z,91.58
2017-12-25T05:57:22.122Z,91.48
2017-12-25T05:59:50.462Z,91.45
2017-12-25T06:02:18.793Z,91.26
2017-12-25T06:04:47.110Z,91.28
2017-12-25T06:07:15.442Z,91.32
2017-12-25T06:09:43.757Z,91.62
2017-12-25T06:12:12.090Z,91.65
2017-12-25T06:14:40.410Z,91.76
2017-12-25T06:17:08.746Z,91.39
2017-12-25T06:19:37.061Z,91.16
2017-12-25T06:22:05.395Z,90.89
2017-12-25T06:24:33.758Z,91.16
2017-12-25T06:27:02.098Z,90.98
2017-12-25T06:29:30.418Z,90.96
2017-12-25T06:31:58.843Z,90.67
2017-12-25T06:34:27.157Z,90.32
2017-12-25T06:36:55.510Z,90.61
2017-12-25T06:39:23.831Z,90.78
2017-12-25T06:41:52.224Z,91.01
2017-12-25T06:44:20.614Z,90.84
2017-12-25T06:46:48.965Z,91.32
2017-12-25T06:49:17.294Z,91.02
2017-12-25T06:51:45.756Z,90.57
2017-12-25T06:54:14.203Z,90.71
2017-12-25T06:56:42.530Z,90.95
2017-12-25T06:59:10.848Z,90.50
2017-12-25T07:01:39.246Z,90.72
2017-12-25T07:04:07.561Z,91.05
2017-12-25T07:06:35.889Z,90.95
2017-12-25T07:09:04.267Z,91.24
2017-12-25T07:11:32.696Z,91.47
2017-12-25T07:14:01.098Z,91.78
2017-12-25T07:16:29.489Z,92.09
2017-12-25T07:18:57.891Z,92.03
2017-12-25T07:21:26.282Z,91.98
2017-12-25T07:23:54.615Z,92.26
2017-12-25T07:26:22.951Z,91.90
2017-12-25T07:28:51.268Z,92.03
2017-12-25T07:31:19.603Z,91.91
2017-12-25T07:33:47.918Z,91.77
2017-12-25T07:36:16.249Z,91.84
2017-12-25T07:38:44.566Z,91.71
2017-12-25T07:41:12.901Z,91.82
2017-12-25T07:43:41.219Z,91.63
2017-12-25T07:46:09.550Z,91.69
2017-12-25T07:48:37.862Z,91.91
2017-12-25T07:51:06.203Z,91.71
2017-12-25T07:53:34.518Z,91.63
2017-12-25T07:56:02.854Z,91.54
2017-12-25T07:58:31.166Z,92.09
2017-12-25T08:00:59.503Z,92.11
2017-12-25T08:03:27.817Z,92.32
2017-12-25T08:05:56.158Z,91.80
2017-12-25T08:08:24.489Z,91.78
2017-12-25T08:10:52.801Z,91.68
2017-12-25T08:13:21.182Z,91.79
2017-12-25T08:15:49.476Z,91.65
2017-12-25T08:18:17.817Z,91.03
2017-12-25T08:20:46.130Z,91.14
2017-12-25T08:23:14.475Z,91.21
2017-12-25T08:25:42.784Z,90.99
2017-12-25T08:28:11.139Z,90.61
2017-12-25T08:30:39.468Z,90.67
2017-12-25T08:33:07.805Z,90.21
2017-12-25T08:35:36.120Z,90.15
2017-12-25T08:38:04.454Z,90.28
2017-12-25T08:40:32.762Z,89.88
2017-12-25T08:43:01.183Z,89.62
2017-12-25T08:45:29.503Z,89.61
2017-12-25T08:47:57.866Z,89.47
2017-12-25T08:50:26.182Z,89.03
2017-12-25T08:52:54.518Z,88.95
2017-12-25T08:55:22.836Z,89.07
2017-12-25T08:57:51.273Z,88.67
2017-12-25T09:03:16.802Z,88.30
2017-12-25T09:05:45.128Z,88.28
2017-12-25T09:08:13.510Z,88.00
2017-12-25T09:10:41.835Z,87.87
2017-12-25T09:13:10.174Z,87.94
2017-12-25T09:15:38.546Z,87.71
2017-12-25T09:18:07.047Z,87.38
2017-12-25T09:20:35.362Z,87.26
2017-12-25T09:23:03.831Z,87.54
2017-12-25T09:25:32.159Z,87.46
2017-12-25T09:28:00.499Z,87.22
2017-12-25T09:30:28.809Z,86.91
2017-12-25T09:32:57.148Z,87.13
2017-12-25T09:35:25.470Z,87.22
2017-12-25T09:37:53.806Z,87.37
2017-12-25T09:40:22.118Z,86.97
2017-12-25T09:42:53.195Z,87.20
2017-12-25T09:45:22.081Z,87.48
2017-12-25T09:47:50.639Z,87.70
2017-12-25T09:50:18.933Z,88.13
2017-12-25T09:52:47.278Z,87.71
2017-12-25T09:55:15.593Z,87.24
2017-12-25T09:57:43.954Z,86.08
2017-12-25T10:00:12.602Z,85.45
2017-12-25T10:02:40.942Z,84.67
2017-12-25T10:05:09.585Z,84.54
2017-12-25T10:07:38.395Z,84.97
2017-12-25T10:10:06.747Z,84.50
2017-12-25T10:12:35.122Z,84.66
2017-12-25T10:15:03.598Z,83.28
2017-12-25T10:17:31.937Z,83.41
2017-12-25T10:20:00.262Z,83.44
2017-12-25T10:22:28.603Z,83.51
2017-12-25T10:24:56.929Z,83.85
2017-12-25T10:27:25.266Z,84.26
2017-12-25T10:29:53.595Z,83.69
2017-12-25T10:32:21.948Z,83.43
2017-12-25T10:34:50.296Z,82.93
2017-12-25T10:37:18.615Z,82.63
2017-12-25T10:39:46.958Z,82.59
2017-12-25T10:42:15.278Z,81.69
2017-12-25T10:44:43.619Z,81.83
2017-12-25T10:47:11.948Z,81.44
2017-12-25T10:49:40.282Z,80.42
2017-12-25T10:52:08.601Z,80.51
2017-12-25T10:54:36.942Z,80.64
2017-12-25T10:57:05.254Z,80.46
2017-12-25T10:59:33.613Z,79.86
2017-12-25T11:02:01.934Z,80.08
2017-12-25T11:04:30.275Z,80.41
2017-12-25T11:06:58.598Z,79.84
2017-12-25T11:09:26.933Z,79.82
2017-12-25T11:11:55.260Z,79.86
2017-12-25T11:14:23.599Z,79.54
2017-12-25T11:16:52.714Z,79.09
2017-12-25T11:19:21.058Z,78.78
2017-12-25T11:21:49.374Z,78.38
2017-12-25T11:24:17.718Z,78.92
2017-12-25T11:26:46.052Z,79.34
2017-12-25T11:29:14.411Z,79.42
2017-12-25T11:31:42.739Z,79.35
2017-12-25T11:34:11.097Z,79.36
2017-12-25T11:36:39.406Z,79.58
2017-12-25T11:39:07.745Z,79.26
2017-12-25T11:41:36.062Z,78.78
2017-12-25T11:44:04.399Z,79.60
2017-12-25T11:46:32.726Z,79.68
2017-12-25T11:49:01.067Z,80.10
2017-12-25T11:51:29.386Z,79.80
2017-12-25T11:53:57.731Z,79.57
2017-12-25T11:58:54.389Z,79.87
2017-12-25T12:01:22.710Z,80.05
2017-12-25T12:03:51.055Z,80.08
2017-12-25T12:06:19.378Z,80.34
2017-12-25T12:08:47.867Z,79.89
2017-12-25T12:11:16.703Z,79.83
2017-12-25T12:13:45.046Z,80.03
2017-12-25T12:16:13.478Z,80.22
2017-12-25T12:18:41.886Z,80.27
2017-12-25T12:21:10.209Z,80.68
2017-12-25T12:23:38.551Z,80.29
2017-12-25T12:26:06.865Z,80.36
2017-12-25T12:28:35.238Z,80.85
2017-12-25T12:31:04.375Z,80.57
2017-12-25T12:33:32.703Z,80.39
2017-12-25T12:36:01.034Z,80.84
2017-12-25T12:38:29.409Z,81.09
2017-12-25T12:40:57.746Z,80.61
2017-12-25T12:43:26.061Z,81.25
2017-12-25T12:45:55.361Z,81.21
2017-12-25T12:48:23.694Z,81.31
2017-12-25T12:50:52.042Z,80.87
2017-12-25T12:53:20.353Z,79.85
2017-12-25T12:55:51.209Z,80.35
2017-12-25T12:58:22.990Z,80.60
2017-12-25T13:00:51.333Z,80.23
2017-12-25T13:03:19.645Z,80.83
2017-12-25T13:05:47.982Z,80.57
2017-12-25T13:08:16.302Z,80.50
2017-12-25T13:10:44.642Z,81.10
2017-12-25T13:13:12.958Z,81.10
2017-12-25T13:15:41.365Z,80.74
2017-12-25T13:18:09.691Z,80.27
2017-12-25T13:20:38.022Z,80.56
2017-12-25T13:23:06.334Z,79.99
2017-12-25T13:25:34.675Z,80.15
2017-12-25T13:28:02.990Z,79.38
2017-12-25T13:30:31.331Z,78.61
2017-12-25T13:32:59.650Z,78.63
2017-12-25T13:35:27.987Z,78.65
2017-12-25T13:37:56.311Z,78.68
2017-12-25T13:40:24.685Z,78.65
2017-12-25T13:42:52.987Z,78.23
2017-12-25T13:45:21.343Z,78.69
2017-12-25T13:47:49.663Z,78.99
2017-12-25T13:50:17.998Z,79.96
2017-12-25T13:52:46.633Z,79.58
2017-12-25T13:55:15.042Z,79.99
2017-12-25T13:57:43.362Z,80.11
2017-12-25T14:00:11.702Z,80.05
2017-12-25T14:02:40.070Z,80.32
2017-12-25T14:05:08.435Z,80.02
2017-12-25T14:07:36.794Z,79.77
2017-12-25T14:10:05.144Z,80.07
2017-12-25T14:12:34.421Z,79.84
2017-12-25T14:15:02.824Z,79.73
2017-12-25T14:17:31.142Z,79.90
2017-12-25T14:19:59.479Z,79.64
2017-12-25T14:22:27.798Z,79.89
2017-12-25T14:24:56.139Z,79.40
2017-12-25T14:27:24.459Z,80.11
2017-12-25T14:29:52.794Z,79.81
2017-12-25T14:32:21.978Z,78.43
2017-12-25T14:34:50.307Z,77.61
2017-12-25T14:37:18.642Z,77.62
2017-12-25T14:39:48.671Z,77.64
2017-12-25T14:42:17.000Z,77.36
2017-12-25T14:44:45.339Z,77.60
2017-12-25T14:47:13.677Z,77.32
2017-12-25T14:49:41.990Z,77.66
2017-12-25T14:52:10.380Z,77.24
2017-12-25T14:54:38.714Z,77.89
2017-12-25T14:57:08.041Z,77.71
2017-12-25T14:59:36.358Z,77.40
2017-12-25T15:02:04.698Z,77.80
2017-12-25T15:04:33.069Z,77.90
2017-12-25T15:07:01.418Z,78.10
2017-12-25T15:09:29.738Z,78.37
2017-12-25T15:11:59.003Z,78.37
2017-12-25T15:14:27.331Z,78.13
2017-12-25T15:16:55.667Z,78.49
2017-12-25T15:19:23.986Z,78.97
2017-12-25T15:21:52.327Z,79.61
2017-12-25T15:24:20.649Z,79.43
2017-12-25T15:26:49.889Z,79.23
2017-12-25T15:29:18.226Z,79.12
2017-12-25T15:31:46.578Z,78.61
2017-12-25T15:34:14.917Z,78.91
2017-12-25T15:36:43.313Z,77.76
2017-12-25T15:39:11.610Z,78.09
2017-12-25T15:41:39.949Z,78.28
2017-12-25T15:44:08.270Z,78.02
2017-12-25T15:46:36.634Z,78.29
2017-12-25T15:49:04.952Z,78.36
2017-12-25T15:51:33.294Z,78.01
2017-12-25T15:54:01.612Z,77.38
2017-12-25T15:56:29.969Z,77.36
2017-12-25T15:58:58.353Z,77.50
2017-12-25T16:01:26.699Z,77.46
2017-12-25T16:03:55.018Z,80.29
2017-12-25T16:06:23.638Z,76.52
2017-12-25T16:08:51.962Z,75.99
2017-12-25T16:11:20.982Z,76.20
2017-12-25T16:13:49.342Z,76.15
2017-12-25T16:16:17.727Z,76.76
2017-12-25T16:18:46.226Z,76.51
2017-12-25T16:21:14.594Z,76.59
2017-12-25T16:23:42.916Z,76.54
2017-12-25T16:26:11.287Z,76.63
2017-12-25T16:28:39.632Z,77.31
2017-12-25T16:31:07.965Z,76.33
2017-12-25T16:33:36.286Z,76.50
2017-12-25T16:36:04.633Z,76.49
2017-12-25T16:38:32.954Z,76.18
2017-12-25T16:41:01.333Z,76.08
2017-12-25T16:43:29.662Z,75.47
2017-12-25T16:45:57.988Z,75.47
2017-12-25T16:48:26.358Z,75.29
2017-12-25T16:50:54.682Z,74.29
2017-12-25T16:53:23.025Z,74.87
2017-12-25T16:55:52.299Z,73.94
2017-12-25T16:58:20.643Z,74.70
2017-12-25T17:00:48.959Z,74.29
2017-12-25T17:03:17.415Z,74.38
2017-12-25T17:05:45.726Z,73.79
2017-12-25T17:08:14.063Z,74.00
2017-12-25T17:10:42.386Z,74.03
2017-12-25T17:13:10.728Z,73.86
2017-12-25T17:15:39.050Z,74.08
2017-12-25T17:18:07.390Z,73.53
2017-12-25T17:20:35.707Z,74.30
2017-12-25T17:23:05.047Z,74.50
2017-12-25T17:25:33.374Z,75.59
2017-12-25T17:28:01.714Z,74.74
2017-12-25T17:30:30.035Z,74.67
2017-12-25T17:32:58.396Z,74.63
2017-12-25T17:35:26.705Z,75.72
2017-12-25T17:37:55.034Z,76.06
2017-12-25T17:40:23.367Z,75.94
2017-12-25T17:42:52.679Z,76.15
2017-12-25T17:45:21.004Z,76.47
2017-12-25T17:47:49.349Z,76.62
2017-12-25T17:50:17.666Z,76.96
2017-12-25T17:52:46.022Z,77.34
2017-12-25T17:55:14.365Z,77.08
2017-12-25T17:57:42.703Z,76.85
2017-12-25T18:00:11.012Z,77.13
2017-12-25T18:02:39.346Z,76.66
2017-12-25T18:05:07.666Z,77.44
2017-12-25T18:07:36.002Z,77.71
2017-12-25T18:10:04.317Z,77.35
2017-12-25T18:12:32.658Z,77.30
2017-12-25T18:15:00.978Z,77.42
2017-12-25T18:17:29.319Z,77.56
2017-12-25T18:19:57.635Z,77.59
2017-12-25T18:22:26.009Z,76.91
2017-12-25T18:24:54.329Z,76.94
2017-12-25T18:27:22.661Z,76.62
2017-12-25T18:29:51.133Z,77.12
2017-12-25T18:32:19.482Z,77.10
2017-12-25T18:34:47.798Z,76.96
2017-12-25T18:37:16.138Z,76.52
2017-12-25T18:39:44.451Z,76.78
2017-12-25T18:42:12.793Z,76.98
2017-12-25T18:44:41.110Z,76.18
2017-12-25T18:47:09.476Z,76.67
2017-12-25T18:49:37.806Z,76.02
2017-12-25T18:52:06.127Z,76.00
2017-12-25T18:54:34.466Z,76.22
2017-12-25T18:57:02.846Z,76.50
2017-12-25T18:59:31.223Z,76.08
2017-12-25T19:01:59.532Z,76.24
2017-12-25T19:04:27.912Z,75.99
2017-12-25T19:06:57.169Z,75.61
2017-12-25T19:09:25.579Z,75.81
2017-12-25T19:11:54.017Z,76.10
2017-12-25T19:14:22.367Z,75.61
2017-12-25T19:16:51.706Z,76.08
2017-12-25T19:19:20.050Z,76.02
2017-12-25T19:21:48.365Z,75.99
2017-12-25T19:24:16.842Z,76.49
2017-12-25T19:26:45.162Z,76.29
2017-12-25T19:29:13.602Z,76.07
2017-12-25T19:31:41.914Z,76.41
2017-12-25T19:34:10.269Z,75.92
2017-12-25T19:36:38.586Z,75.63
2017-12-25T19:39:06.926Z,75.49
2017-12-25T19:41:35.243Z,75.72
2017-12-25T19:44:03.578Z,75.57
2017-12-25T19:46:31.897Z,76.08
2017-12-25T19:49:00.249Z,75.77
2017-12-25T19:51:28.561Z,75.85
2017-12-25T19:53:56.909Z,75.83
2017-12-25T19:56:25.254Z,75.91
2017-12-25T19:58:53.970Z,75.49
2017-12-25T20:01:22.337Z,74.74
2017-12-25T20:03:50.674Z,75.58
2017-12-25T20:06:20.029Z,74.79
2017-12-25T20:08:49.347Z,74.72
2017-12-25T20:11:17.666Z,74.19
2017-12-25T20:13:46.917Z,74.49
2017-12-25T20:16:15.294Z,74.16
2017-12-25T20:18:43.655Z,74.19
2017-12-25T20:21:11.990Z,73.56
2017-12-25T20:23:40.369Z,74.27
2017-12-25T20:26:08.682Z,73.93
2017-12-25T20:28:37.075Z,74.18
2017-12-25T20:31:05.510Z,74.33
2017-12-25T20:33:34.298Z,74.47
2017-12-25T20:36:02.611Z,74.60
2017-12-25T20:38:30.974Z,74.78
2017-12-25T20:40:59.281Z,75.12
2017-12-25T20:43:27.658Z,74.58
2017-12-25T20:45:55.974Z,74.98
2017-12-25T20:48:24.354Z,74.94
2017-12-25T20:50:52.686Z,74.68
2017-12-25T20:53:21.006Z,74.88
2017-12-25T20:55:50.321Z,74.84
2017-12-25T20:58:18.648Z,74.65
2017-12-25T21:00:46.993Z,74.50
2017-12-25T21:03:15.311Z,74.52
2017-12-25T21:05:43.646Z,74.78
2017-12-25T21:08:11.966Z,75.34
2017-12-25T21:10:40.303Z,75.64
2017-12-25T21:13:08.630Z,75.51
2017-12-25T21:15:36.973Z,75.96
2017-12-25T21:18:05.332Z,75.28
2017-12-25T21:20:33.686Z,75.56
2017-12-25T21:23:02.010Z,75.03
2017-12-25T21:25:30.347Z,75.68
2017-12-25T21:27:58.666Z,76.16
2017-12-25T21:30:27.006Z,76.46
2017-12-25T21:32:55.327Z,76.30
2017-12-25T21:35:23.666Z,76.05
2017-12-25T21:37:51.987Z,76.10
2017-12-25T21:40:20.334Z,76.83
2017-12-25T21:42:48.646Z,76.65
2017-12-25T21:45:16.986Z,76.30
2017-12-25T21:47:45.606Z,76.94
2017-12-25T21:50:13.943Z,77.13
2017-12-25T21:52:42.288Z,77.12
2017-12-25T21:55:10.610Z,77.21
2017-12-25T21:57:38.942Z,77.13
2017-12-25T22:00:07.278Z,77.01
2017-12-25T22:02:35.598Z,77.05
2017-12-25T22:05:03.946Z,77.05
2017-12-25T22:07:32.350Z,77.54
2017-12-25T22:10:00.693Z,77.66
2017-12-25T22:12:29.014Z,76.82
2017-12-25T22:14:57.350Z,76.87
2017-12-25T22:17:25.667Z,77.10
2017-12-25T22:19:54.002Z,77.31
2017-12-25T22:22:22.322Z,77.65
2017-12-25T22:24:50.687Z,77.16
2017-12-25T22:27:19.007Z,77.07
2017-12-25T22:29:47.360Z,76.83
2017-12-25T22:32:15.683Z,76.81
2017-12-25T22:34:44.026Z,76.61
2017-12-25T22:37:12.504Z,76.82
2017-12-25T22:39:42.361Z,77.02
2017-12-25T22:42:10.749Z,76.86
2017-12-25T22:44:39.094Z,76.66
2017-12-25T22:47:07.894Z,77.13
2017-12-25T22:49:36.501Z,76.92
2017-12-25T22:52:05.147Z,77.24
2017-12-25T22:54:33.794Z,76.87
2017-12-25T22:57:02.458Z,77.42
2017-12-25T22:59:31.409Z,77.29
2017-12-25T23:02:00.079Z,76.88
2017-12-25T23:04:31.859Z,76.69
2017-12-25T23:07:00.530Z,77.28
2017-12-25T23:09:29.863Z,76.95
2017-12-25T23:11:58.616Z,77.02
2017-12-25T23:14:27.242Z,77.27
2017-12-25T23:16:56.927Z,77.59
2017-12-25T23:19:25.827Z,77.04
2017-12-25T23:21:55.402Z,77.50
2017-12-25T23:24:23.967Z,77.39
2017-12-25T23:26:53.482Z,77.65
2017-12-25T23:29:22.859Z,77.84
2017-12-25T23:31:51.557Z,77.97
2017-12-25T23:34:20.501Z,77.99
2017-12-25T23:36:49.322Z,77.69
2017-12-25T23:39:18.049Z,78.10
2017-12-25T23:41:46.753Z,77.78
2017-12-25T23:44:15.438Z,78.08
2017-12-25T23:46:44.104Z,78.43
2017-12-25T23:49:12.826Z,78.07
2017-12-25T23:51:41.850Z,78.35
2017-12-25T23:54:10.473Z,77.96
2017-12-25T23:56:39.966Z,78.37
2017-12-25T23:59:08.534Z,78.81
